Terminal Aerodrome Forecast
Issued by NWS

Home | Current Version | Previous Version | Text Only | Print | Product List | Glossary On
Versions: 1 2 3 4 5 6 7 8 9 10 11 12 13 14 15 16 17 18 19 20 21 22 23 24 25 26 27 28 29 30 31 32 33 34 35 36 37 38 39 40 41 42 43 44 45
000
FTAK31 PANC 051811 AAA
TAFADQ
TAF AMD
PADQ 051811Z 0518/0618 07010KT 2SM -RA BR SCT004 OVC007
      TEMPO 0518/0520 BKN004
     FM052100 09014KT 3SM -RA BR SCT005 OVC008
     FM060200 11010KT 5SM -RA BR SCT008 OVC015
     FM060400 10010KT P6SM SCT012 BKN020
     FM060800 10009KT 3SM -RA BR OVC008
     FM061200 09009KT 1 1/2SM -RA BR OVC003=

USA.gov is the U.S. government's official web portal to all federal, state and local government web resources and services.